地図

経路データ

SID SEASON NUMBER BASIN SUBBASIN NAME ISO_TIME NATURE LAT LON WMO_WIND WMO_PRES WMO_AGENCY TRACK_TYPE DIST2LAND LANDFALL IFLAG USA_AGENCY USA_ATCF_ID USA_LAT USA_LON USA_RECORD USA_STATUS USA_WIND USA_PRES USA_SSHS USA_R34_NE USA_R34_SE USA_R34_SW USA_R34_NW USA_R50_NE USA_R50_SE USA_R50_SW USA_R50_NW USA_R64_NE USA_R64_SE USA_R64_SW USA_R64_NW USA_POCI USA_ROCI USA_RMW USA_EYE TOKYO_LAT TOKYO_LON TOKYO_GRADE TOKYO_WIND TOKYO_PRES TOKYO_R50_DIR TOKYO_R50_LONG TOKYO_R50_SHORT TOKYO_R30_DIR TOKYO_R30_LONG TOKYO_R30_SHORT TOKYO_LAND CMA_LAT CMA_LON CMA_CAT CMA_WIND CMA_PRES HKO_LAT HKO_LON HKO_CAT HKO_WIND HKO_PRES NEWDELHI_LAT NEWDELHI_LON NEWDELHI_GRADE NEWDELHI_WIND NEWDELHI_PRES NEWDELHI_CI NEWDELHI_DP NEWDELHI_POCI REUNION_LAT REUNION_LON REUNION_TYPE REUNION_WIND REUNION_PRES REUNION_TNUM REUNION_CI REUNION_RMW REUNION_R34_NE REUNION_R34_SE REUNION_R34_SW REUNION_R34_NW REUNION_R50_NE REUNION_R50_SE REUNION_R50_SW REUNION_R50_NW REUNION_R64_NE REUNION_R64_SE REUNION_R64_SW REUNION_R64_NW BOM_LAT BOM_LON BOM_TYPE BOM_WIND BOM_PRES BOM_TNUM BOM_CI BOM_RMW BOM_R34_NE BOM_R34_SE BOM_R34_SW BOM_R34_NW BOM_R50_NE BOM_R50_SE BOM_R50_SW BOM_R50_NW BOM_R64_NE BOM_R64_SE BOM_R64_SW BOM_R64_NW BOM_ROCI BOM_POCI BOM_EYE BOM_POS_METHOD BOM_PRES_METHOD NADI_LAT NADI_LON NADI_CAT NADI_WIND NADI_PRES WELLINGTON_LAT WELLINGTON_LON WELLINGTON_WIND WELLINGTON_PRES DS824_LAT DS824_LON DS824_STAGE DS824_WIND DS824_PRES TD9636_LAT TD9636_LON TD9636_STAGE TD9636_WIND TD9636_PRES TD9635_LAT TD9635_LON TD9635_WIND TD9635_PRES TD9635_ROCI NEUMANN_LAT NEUMANN_LON NEUMANN_CLASS NEUMANN_WIND NEUMANN_PRES MLC_LAT MLC_LON MLC_CLASS MLC_WIND MLC_PRES USA_GUST BOM_GUST BOM_GUST_PER REUNION_GUST REUNION_GUST_PER USA_SEAHGT USA_SEARAD_NE USA_SEARAD_SE USA_SEARAD_SW USA_SEARAD_NW STORM_SPEED STORM_DIR
1877135N10083 1877 15 NI BB NOT_NAMED 1877-05-15 00:00:00 TS 9.90000 82.9000 main 230 221 _________O____ -1 9.90000 82.9000 TC 64 2 311
1877135N10083 1877 15 NI BB NOT_NAMED 1877-05-15 03:00:00 TS 9.95834 82.8333 main 228 226 _________PO___ -1 9.98751 82.8000 TC 64 9.90000 82.9000 4 2 317
1877135N10083 1877 15 NI BB NOT_NAMED 1877-05-15 06:00:00 TS 10.0744 82.7357 main 226 221 _________OP___ -1 10.1000 82.7000 TC 64 10.0360 82.7892 4 3 323
1877135N10083 1877 15 NI BB NOT_NAMED 1877-05-15 09:00:00 TS 10.2147 82.6354 main 221 217 _________PP___ -1 10.2500 82.6000 TC 64 10.1676 82.6826 4 3 325
1877135N10083 1877 15 NI BB NOT_NAMED 1877-05-15 12:00:00 TS 10.3452 82.5424 main 217 217 _________OP___ -1 10.4000 82.5000 TC 64 10.2903 82.5848 4 3 322
1877135N10083 1877 15 NI BB NOT_NAMED 1877-05-15 15:00:00 TS 10.4538 82.4462 main 220 220 _________PO___ -1 10.5075 82.3925 TC 64 10.4000 82.5000 4 3 320
1877135N10083 1877 15 NI BB NOT_NAMED 1877-05-15 18:00:00 TS 10.5475 82.3650 main 220 219 _________OP___ -1 10.6000 82.3000 TC 64 10.4950 82.4299 4 2 324
1877135N10083 1877 15 NI BB NOT_NAMED 1877-05-15 21:00:00 TS 10.6387 82.3112 main 219 219 _________PP___ -1 10.6925 82.2575 TC 64 10.5849 82.3648 4 2 328
1877135N10083 1877 15 NI BB NOT_NAMED 1877-05-16 00:00:00 TS 10.7412 82.2462 main 219 219 _________OP___ -1 10.8000 82.2000 TC 64 10.6825 82.2924 4 3 323
1877135N10083 1877 15 NI BB NOT_NAMED 1877-05-16 03:00:00 TS 10.8675 82.1325 main 228 228 _________PO___ -1 10.9350 82.0650 TC 64 10.8000 82.2000 4 4 317
1877135N10083 1877 15 NI BB NOT_NAMED 1877-05-16 06:00:00 TS 11.0267 81.9797 main 229 207 _________OP___ -1 11.1000 81.9000 TC 64 10.9535 82.0595 4 5 318
1877135N10083 1877 15 NI BB NOT_NAMED 1877-05-16 09:00:00 TS 11.2138 81.8213 main 207 196 _________PP___ -1 11.3000 81.7425 TC 64 11.1276 81.9001 4 5 321
1877135N10083 1877 15 NI BB NOT_NAMED 1877-05-16 12:00:00 TS 11.4064 81.6704 main 197 173 _________OP___ -1 11.5000 81.6000 TC 64 11.3129 81.7407 4 5 323
1877135N10083 1877 15 NI BB NOT_NAMED 1877-05-16 15:00:00 TS 11.5750 81.5425 main 173 167 _________PO___ -1 11.6500 81.4850 TC 64 11.5000 81.6000 4 4 327
1877135N10083 1877 15 NI BB NOT_NAMED 1877-05-16 18:00:00 TS 11.7314 81.4557 main 167 146 _________OP___ -1 11.8000 81.4000 TC 64 11.6628 81.5114 4 4 337
1877135N10083 1877 15 NI BB NOT_NAMED 1877-05-16 21:00:00 TS 11.9062 81.3961 main 146 127 _________PP___ -1 11.9850 81.3500 TC 64 11.8274 81.4423 4 4 343
1877135N10083 1877 15 NI BB NOT_NAMED 1877-05-17 00:00:00 TS 12.1017 81.3385 main 127 121 _________OP___ -1 12.2000 81.3000 TC 64 12.0034 81.3770 4 4 342
1877135N10083 1877 15 NI BB NOT_NAMED 1877-05-17 03:00:00 TS 12.3212 81.2575 main 121 97 _________PO___ -1 12.4425 81.2150 TC 64 12.2000 81.3000 4 5 337
1877135N10083 1877 15 NI BB NOT_NAMED 1877-05-17 06:00:00 TS 12.5622 81.1407 main 97 86 _________OP___ -1 12.7000 81.1000 TC 64 12.4244 81.1813 4 6 333
1877135N10083 1877 15 NI BB NOT_NAMED 1877-05-17 09:00:00 TS 12.8100 81.0001 main 86 68 _________PP___ -1 12.9500 80.9500 TC 64 12.6701 81.0501 4 6 331
1877135N10083 1877 15 NI BB NOT_NAMED 1877-05-17 12:00:00 TS 13.0653 80.8594 main 68 43 _________OP___ -1 13.2000 80.8000 TC 64 12.9307 80.9188 4 6 334
1877135N10083 1877 15 NI BB NOT_NAMED 1877-05-17 15:00:00 TS 13.3212 80.7425 main 43 43 _________PO___ -1 13.4425 80.6850 TC 56 13.2000 80.8000 4 6 338
1877135N10083 1877 15 NI BB NOT_NAMED 1877-05-17 18:00:00 TS 13.5778 80.6472 main 32 32 _________OP___ -1 13.7000 80.6000 TC 49 13.4556 80.6944 4 6 343
1877135N10083 1877 15 NI BB NOT_NAMED 1877-05-17 21:00:00 TS 13.8525 80.5700 main 34 24 _________PP___ -1 13.9850 80.5350 TC 41 13.7200 80.6051 4 6 348
1877135N10083 1877 15 NI BB NOT_NAMED 1877-05-18 00:00:00 TS 14.1497 80.5191 main 39 34 _________OP___ -1 14.3000 80.5000 TC 34 13.9994 80.5382 4 6 352
1877135N10083 1877 15 NI BB NOT_NAMED 1877-05-18 03:00:00 TS 14.4712 80.4925 main 34 32 _________PO___ -1 14.6425 80.4850 TC 33 14.3000 80.5000 2 7 356
1877135N10083 1877 15 NI BB NOT_NAMED 1877-05-18 06:00:00 TS 14.8162 80.4860 main 39 39 _________OP___ -1 15.0000 80.5000 TC 32 14.6324 80.4720 2 7 2
1877135N10083 1877 15 NI BB NOT_NAMED 1877-05-18 09:00:00 TS 15.1674 80.5051 main 44 30 _________PP___ -1 15.3500 80.5350 TC 31 14.9849 80.4752 2 7 6
1877135N10083 1877 15 NI BB NOT_NAMED 1877-05-18 12:00:00 TS 15.5225 80.5579 main 30 0 _________OP___ -1 15.7000 80.6000 TC 30 15.3449 80.5158 2 7 10
1877135N10083 1877 15 NI BB NOT_NAMED 1877-05-18 15:00:00 TS 15.8787 80.6350 main 0 0 _________PO___ -1 16.0575 80.6701 TC 30 15.7000 80.6000 1 7 15
1877135N10083 1877 15 NI BB NOT_NAMED 1877-05-18 18:00:00 TS 16.2119 80.7419 main 0 0 _________OP___ -1 16.4000 80.8000 TC 30 16.0237 80.6837 1 7 22
1877135N10083 1877 15 NI BB NOT_NAMED 1877-05-18 21:00:00 TS 16.5171 80.9069 main 0 0 _________PP___ -1 16.6924 80.9977 TC 30 16.3419 80.8160 1 7 33
1877135N10083 1877 15 NI BB NOT_NAMED 1877-05-19 00:00:00 TS 16.8321 81.1576 main 0 0 _________OP___ -1 17.0000 81.3000 TC 30 16.6641 81.0153 1 9 40
1877135N10083 1877 15 NI BB NOT_NAMED 1877-05-19 03:00:00 TS 17.1963 81.5062 main 0 0 _________PO___ -1 17.3925 81.7124 TC 30 17.0000 81.3000 1 11 45
1877135N10083 1877 15 NI BB NOT_NAMED 1877-05-19 06:00:00 TS 17.5806 81.9482 main 0 0 _________OP___ -1 17.8000 82.2000 TC 30 17.3612 81.6964 1 12 50
1877135N10083 1877 15 NI BB NOT_NAMED 1877-05-19 09:00:00 TS 17.9466 82.4373 main 0 0 _________PP___ -1 18.1575 82.7002 TC 30 17.7358 82.1745 1 12 53
1877135N10083 1877 15 NI BB NOT_NAMED 1877-05-19 12:00:00 TS 18.3087 82.9452 main 0 0 _________OP___ -1 18.5000 83.2000 TC 30 18.1174 82.6904 1 12 53
1877135N10083 1877 15 NI BB NOT_NAMED 1877-05-19 15:00:00 TS 18.6712 83.4326 main 0 0 _________PO___ -1 18.8424 83.6652 TC 30 18.5000 83.2000 1 11 50
1877135N10083 1877 15 NI BB NOT_NAMED 1877-05-19 18:00:00 TS 19.0353 83.8741 main 0 0 _________OP___ -1 19.2000 84.1000 TC 30 18.8706 83.6481 1 11 48
1877135N10083 1877 15 NI BB NOT_NAMED 1877-05-19 21:00:00 TS 19.4172 84.2943 main 0 0 _________PP___ -1 19.5924 84.5077 TC 30 19.2421 84.0808 1 11 45
1877135N10083 1877 15 NI BB NOT_NAMED 1877-05-20 00:00:00 TS 19.8088 84.6991 main 0 0 _________OP___ -1 20.0000 84.9000 TC 30 19.6175 84.4981 1 11 44
1877135N10083 1877 15 NI BB NOT_NAMED 1877-05-20 03:00:00 TS 20.2000 85.1038 main 0 0 _________PO___ -1 20.4000 85.3076 TC 30 20.0000 84.9000 1 11 44
1877135N10083 1877 15 NI BB NOT_NAMED 1877-05-20 06:00:00 TS 20.5903 85.5070 main 0 0 _________OP___ -1 20.8000 85.7000 TC 30 20.3805 85.3141 1 11 43
1877135N10083 1877 15 NI BB NOT_NAMED 1877-05-20 09:00:00 TS 20.9812 85.8878 main 0 0 _________PP___ -1 21.1924 86.0652 TC 30 20.7700 85.7104 1 11 41
1877135N10083 1877 15 NI BB NOT_NAMED 1877-05-20 12:00:00 TS 21.3872 86.2383 main 0 0 _________OP___ -1 21.6000 86.4000 TC 30 21.1744 86.0765 1 11 37
1877135N10083 1877 15 NI BB NOT_NAMED 1877-05-20 15:00:00 TS 21.8175 86.5650 main 0 0 _________PO___ -1 22.0350 86.7300 TC 30 21.6000 86.4000 1 11 32
1877135N10083 1877 15 NI BB NOT_NAMED 1877-05-20 18:00:00 TS 22.2989 86.8502 main 0 0 _________OP___ -1 22.5000 87.0000 TC 30 22.0978 86.7004 1 11 25
1877135N10083 1877 15 NI BB NOT_NAMED 1877-05-20 21:00:00 TS 22.8236 87.0711 main 0 0 _________PP___ -1 23.0374 87.1876 TC 30 22.6097 86.9546 1 11 19
1877135N10083 1877 15 NI BB NOT_NAMED 1877-05-21 00:00:00 TS 23.2959 87.2283 main 0 0 _________OP___ -1 23.5000 87.3000 TC 30 23.0917 87.1565 1 8 17
1877135N10083 1877 15 NI BB NOT_NAMED 1877-05-21 03:00:00 TS 23.6225 87.3363 main 0 0 _________PO___ -1 23.7450 87.3727 TC 30 23.5000 87.3000 1 6 16
1877135N10083 1877 15 NI BB NOT_NAMED 1877-05-21 06:00:00 TS 23.8374 87.3938 main 0 0 _________OP___ -1 23.9000 87.4000 TC 30 23.7747 87.3875 1 4 10
1877135N10083 1877 15 NI BB NOT_NAMED 1877-05-21 09:00:00 TS 24.0336 87.4131 main 0 0 _________PP___ -1 24.0925 87.4075 TC 30 23.9747 87.4186 1 4 2
1877135N10083 1877 15 NI BB NOT_NAMED 1877-05-21 12:00:00 TS 24.2187 87.4077 main 0 0 _________OP___ -1 24.3000 87.4000 TC 30 24.1373 87.4153 1 4 358
1877135N10083 1877 15 NI BB NOT_NAMED 1877-05-21 15:00:00 TS 24.4250 87.4000 main 0 0 _________PO___ -1 24.5500 87.4000 TC 30 24.3000 87.4000 1 4 0
1877135N10083 1877 15 NI BB NOT_NAMED 1877-05-21 18:00:00 TS 24.6242 87.3948 main 0 0 _________OP___ -1 24.8000 87.4000 TC 30 24.4923 87.3909 1 4 0
1877135N10083 1877 15 NI BB NOT_NAMED 1877-05-21 21:00:00 TS 24.8326 87.3937 main 0 0 _________PP___ -1 25.0125 87.4000 TC 30 24.7126 87.3896 1 4 4
1877135N10083 1877 15 NI BB NOT_NAMED 1877-05-22 00:00:00 TS 25.0344 87.3956 main 0 0 _________OP___ -1 25.2000 87.4000 TC 30 24.9516 87.3935 1 4 0
1877135N10083 1877 15 NI BB NOT_NAMED 1877-05-22 03:00:00 NR 25.2000 87.4000 main 0 __________O___ -1 TC 25.2000 87.4000 1 3 9

IBTrACS Databaseについて

本データベースは、米国NOAAが公開する1842年以降の世界の熱帯低気圧のベストトラックデータアーカイブInternational Best Track Archive for Climate Stewardship (IBTrACS)を、ウェブで閲覧しやすい形式に変換したものです。

最終更新日:2021-11-26